Time;durP1;ratioP1;P1;durP2;ratioP2;P2;SDS_P1;SDS_P2;PMS_P1;PMS_P2;Temp;Humidity;BMP_temperature;BMP_pressure;BME280_temperature;BME280_humidity;BME280_pressure;Samples;Min_cycle;Max_cycle;Signal;HPM_P1;HPM_P2
2023/01/16 00:03:32;;;;;;;3.97;1.30;;;;;;;4.67;61.81;98377.53;10270421;28;20334;-65
2023/01/16 00:08:34;;;;;;;3.67;1.30;;;;;;;4.68;61.76;98363.63;10277510;28;20057;-65
2023/01/16 00:13:37;;;;;;;4.70;1.10;;;;;;;4.76;61.45;98357.16;10272265;28;20503;-65
2023/01/16 00:18:38;;;;;;;2.58;1.05;;;;;;;4.72;61.37;98346.97;10271830;28;20108;-65
2023/01/16 00:23:40;;;;;;;4.35;1.30;;;;;;;4.75;61.41;98334.78;10271825;28;20047;-65
2023/01/16 00:28:42;;;;;;;3.65;1.27;;;;;;;4.80;61.61;98330.97;10268731;28;20042;-65
2023/01/16 00:33:43;;;;;;;3.63;1.10;;;;;;;4.82;61.29;98305.81;10274623;28;20495;-65
2023/01/16 00:38:45;;;;;;;4.43;1.20;;;;;;;4.75;61.18;98304.53;10259972;28;20447;-65
2023/01/16 00:43:47;;;;;;;3.47;1.10;;;;;;;4.89;60.92;98303.66;10272265;28;20055;-65
2023/01/16 00:48:48;;;;;;;6.03;1.30;;;;;;;4.86;61.30;98288.34;10264795;28;20057;-65
2023/01/16 00:53:50;;;;;;;5.15;1.30;;;;;;;4.86;61.39;98294.31;10268674;28;20195;-65
2023/01/16 00:58:51;;;;;;;5.22;1.30;;;;;;;4.90;61.09;98275.09;10270864;28;20621;-65
2023/01/16 01:03:53;;;;;;;3.22;1.38;;;;;;;4.91;61.06;98260.38;10271252;28;20049;-65
2023/01/16 01:08:55;;;;;;;3.90;1.23;;;;;;;4.94;60.90;98257.59;10283517;28;20046;-65
2023/01/16 01:13:57;;;;;;;6.05;1.50;;;;;;;4.93;61.07;98250.75;10272766;28;20042;-65
2023/01/16 01:19:01;;;;;;;4.72;1.30;;;;;;;4.99;61.17;98240.00;10272514;28;20090;-65
2023/01/16 01:24:03;;;;;;;5.55;1.63;;;;;;;5.08;60.81;98216.09;10274617;28;20055;-65
2023/01/16 01:29:04;;;;;;;6.10;1.70;;;;;;;5.21;60.78;98219.53;10282242;28;20065;-65
2023/01/16 01:34:06;;;;;;;7.05;1.80;;;;;;;5.15;60.76;98205.22;10274737;28;20043;-65
2023/01/16 01:39:08;;;;;;;5.95;2.15;;;;;;;5.05;60.80;98193.81;10258666;28;20057;-65
2023/01/16 01:44:46;;;;;;;6.22;1.55;;;;;;;4.94;60.58;98178.13;10277061;28;20542;-65
2023/01/16 01:49:50;;;;;;;4.20;1.40;;;;;;;4.87;60.75;98176.03;10267586;28;20053;-65
2023/01/16 01:54:58;;;;;;;4.40;1.30;;;;;;;4.91;61.11;98172.31;10274839;28;20050;-65
2023/01/16 02:00:11;;;;;;;5.10;1.60;;;;;;;4.87;61.48;98155.31;10291005;28;20046;-65
2023/01/16 02:05:18;;;;;;;4.53;1.23;;;;;;;4.75;61.59;98143.97;10271969;28;20384;-65
2023/01/16 02:10:26;;;;;;;4.18;1.33;;;;;;;4.48;61.97;98133.63;10266763;28;20491;-65
2023/01/16 02:15:29;;;;;;;4.50;1.30;;;;;;;4.34;62.07;98125.91;10272711;28;20046;-65
2023/01/16 02:20:37;;;;;;;4.18;1.10;;;;;;;4.24;62.37;98109.31;10268017;28;20050;-65
2023/01/16 02:25:49;;;;;;;5.55;1.30;;;;;;;4.17;62.65;98092.50;10281826;28;20061;-65
2023/01/16 02:31:12;;;;;;;4.25;1.17;;;;;;;4.17;62.87;98089.09;10272658;28;20494;-65
2023/01/16 02:36:23;;;;;;;2.65;1.23;;;;;;;4.08;62.85;98062.06;10266738;28;20679;-65
2023/01/16 02:41:24;;;;;;;3.92;1.20;;;;;;;4.19;62.85;98071.72;10273588;28;20054;-65
2023/01/16 02:46:34;;;;;;;4.10;1.30;;;;;;;4.39;62.67;98045.41;10280483;28;20122;-65
2023/01/16 02:51:51;;;;;;;5.13;1.40;;;;;;;4.37;62.67;98035.13;10274334;28;20054;-65
2023/01/16 02:57:02;;;;;;;3.97;1.48;;;;;;;4.35;62.60;98026.63;10262405;28;20533;-65
2023/01/16 03:02:03;;;;;;;4.45;1.30;;;;;;;4.48;62.64;98017.16;10272043;28;20053;-65
2023/01/16 03:07:18;;;;;;;4.22;1.50;;;;;;;4.65;62.52;98009.13;10278941;28;20404;-65
2023/01/16 03:12:32;;;;;;;8.15;1.60;;;;;;;4.77;62.23;97991.09;10276961;28;20054;-65
2023/01/16 03:18:03;;;;;;;3.10;1.25;;;;;;;4.72;61.75;97987.06;10280385;28;20068;-65
2023/01/16 03:23:07;;;;;;;5.78;1.50;;;;;;;4.84;61.98;97966.47;10271542;28;20055;-65
2023/01/16 03:28:22;;;;;;;3.33;1.30;;;;;;;4.96;61.99;97963.03;10276174;28;20058;-65
2023/01/16 03:33:44;;;;;;;5.22;1.50;;;;;;;4.97;61.37;97934.44;10280944;28;20046;-65
2023/01/16 03:38:48;;;;;;;5.40;1.50;;;;;;;5.11;61.44;97929.13;10281580;28;20484;-65
2023/01/16 03:43:54;;;;;;;3.28;1.50;;;;;;;5.00;61.27;97905.72;10274792;28;20058;-65
2023/01/16 03:49:15;;;;;;;5.20;1.33;;;;;;;5.05;60.88;97902.81;10274481;28;20050;-65
2023/01/16 03:54:32;;;;;;;4.72;1.65;;;;;;;5.00;61.37;97894.53;10266326;28;20087;-65
2023/01/16 03:59:36;;;;;;;3.70;1.25;;;;;;;4.94;61.29;97882.00;10279440;28;20430;-65
2023/01/16 04:05:12;;;;;;;3.95;1.42;;;;;;;4.86;61.26;97879.13;10275667;28;20062;-65
2023/01/16 04:10:20;;;;;;;2.67;1.10;;;;;;;4.93;61.10;97864.81;10267523;28;20058;-65
2023/01/16 04:15:25;;;;;;;5.43;1.40;;;;;;;4.82;61.38;97841.44;10263930;28;20407;-65
2023/01/16 04:20:28;;;;;;;4.25;1.65;;;;;;;4.53;61.78;97831.31;10266664;28;20043;-65
2023/01/16 04:25:30;;;;;;;5.60;1.60;;;;;;;4.32;62.16;97819.84;10267183;28;20234;-65
2023/01/16 04:30:32;;;;;;;4.18;1.23;;;;;;;4.36;62.13;97813.53;10275041;28;20537;-65
2023/01/16 04:35:34;;;;;;;3.40;1.20;;;;;;;4.42;62.02;97792.41;10258969;28;20042;-65
2023/01/16 04:40:36;;;;;;;4.53;1.40;;;;;;;4.33;62.06;97782.66;10264431;28;20047;-65
2023/01/16 04:45:40;;;;;;;6.93;1.42;;;;;;;4.09;62.54;97766.22;10279439;28;20531;-65
2023/01/16 04:50:41;;;;;;;5.10;1.40;;;;;;;4.07;62.54;97742.22;10276473;28;20046;-66
2023/01/16 04:55:43;;;;;;;3.83;1.50;;;;;;;4.12;62.17;97718.66;10282482;28;20053;-65
2023/01/16 05:00:45;;;;;;;4.97;1.70;;;;;;;4.09;62.50;97729.22;10272809;28;20047;-66
2023/01/16 05:05:46;;;;;;;4.45;1.60;;;;;;;4.09;62.42;97711.09;10270388;28;20049;-66
2023/01/16 05:10:48;;;;;;;6.38;1.55;;;;;;;4.36;62.05;97699.66;10274468;28;20053;-66
2023/01/16 05:15:50;;;;;;;4.57;1.55;;;;;;;4.44;61.85;97694.78;10271329;28;20073;-66
2023/01/16 05:20:51;;;;;;;5.45;1.98;;;;;;;4.59;61.55;97670.41;10271542;28;20053;-65
2023/01/16 05:25:53;;;;;;;6.07;1.98;;;;;;;4.65;61.47;97658.78;10281122;28;20085;-66
2023/01/16 05:30:56;;;;;;;3.75;1.38;;;;;;;4.68;61.10;97630.06;10286003;28;20050;-66
2023/01/16 05:35:57;;;;;;;5.43;1.48;;;;;;;4.70;61.24;97628.19;10275065;28;20054;-66
2023/01/16 05:40:59;;;;;;;5.45;1.50;;;;;;;4.70;61.15;97610.06;10278884;28;20207;-66
2023/01/16 05:46:02;;;;;;;4.10;1.45;;;;;;;4.63;61.24;97606.28;10278075;28;20466;-66
2023/01/16 05:51:05;;;;;;;5.07;1.25;;;;;;;4.68;61.13;97586.88;10266475;28;20537;-66
2023/01/16 05:56:10;;;;;;;3.47;1.30;;;;;;;4.68;60.64;97557.56;10271729;28;20053;-65
2023/01/16 06:01:12;;;;;;;6.47;1.33;;;;;;;4.64;60.83;97544.03;10275853;28;20537;-66
2023/01/16 06:06:14;;;;;;;7.88;1.85;;;;;;;4.51;61.17;97524.34;10271894;28;20085;-65
2023/01/16 06:11:18;;;;;;;4.93;1.60;;;;;;;4.42;61.21;97522.44;10277440;28;20477;-67
2023/01/16 06:16:21;;;;;;;6.50;1.60;;;;;;;4.36;61.29;97522.88;10268103;28;20498;-66
2023/01/16 06:21:23;;;;;;;9.63;1.55;;;;;;;4.26;61.28;97496.03;10276486;28;20046;-66
2023/01/16 06:26:25;;;;;;;6.30;1.60;;;;;;;4.20;61.47;97484.38;10274024;28;20534;-66
2023/01/16 06:31:27;;;;;;;6.13;1.52;;;;;;;4.24;61.12;97482.38;10286442;28;20057;-66
2023/01/16 06:36:28;;;;;;;5.07;1.50;;;;;;;4.24;61.32;97478.03;10271094;28;20114;-66
2023/01/16 06:41:30;;;;;;;8.90;1.55;;;;;;;4.32;60.98;97461.94;10269979;28;20051;-66
2023/01/16 06:46:32;;;;;;;5.10;1.48;;;;;;;4.36;60.60;97460.78;10269801;28;20076;-66
2023/01/16 06:51:33;;;;;;;7.88;1.73;;;;;;;4.31;60.55;97453.34;10270444;28;20485;-66
2023/01/16 06:56:35;;;;;;;6.90;1.58;;;;;;;4.24;60.77;97451.34;10273400;28;20045;-66
2023/01/16 07:01:37;;;;;;;6.40;1.80;;;;;;;4.13;61.40;97452.09;10271165;28;20454;-66
2023/01/16 07:06:40;;;;;;;5.35;1.60;;;;;;;3.97;61.28;97442.97;10271654;28;20051;-66
2023/01/16 07:11:42;;;;;;;5.25;1.92;;;;;;;3.69;61.50;97423.44;10266197;28;20510;-66
2023/01/16 07:27:24;;;;;;;6.82;1.90;;;;;;;3.61;61.51;97395.59;10255983;28;20053;-66
2023/01/16 07:32:26;;;;;;;4.65;1.80;;;;;;;3.53;61.62;97376.38;10264177;28;20054;-66
2023/01/16 07:37:27;;;;;;;5.75;1.60;;;;;;;3.46;61.60;97359.66;10256905;28;20402;-66
2023/01/16 07:42:29;;;;;;;8.75;1.88;;;;;;;3.46;61.51;97334.66;10262762;28;20054;-66
2023/01/16 07:47:33;;;;;;;8.80;1.80;;;;;;;3.54;61.21;97316.00;10263702;28;20051;-66
2023/01/16 07:52:35;;;;;;;6.18;1.70;;;;;;;3.53;61.22;97298.88;10263850;28;20061;-66
2023/01/16 07:57:38;;;;;;;5.80;1.60;;;;;;;3.63;61.07;97286.91;10266051;28;20055;-65
2023/01/16 08:02:40;;;;;;;6.68;1.80;;;;;;;3.77;60.66;97277.22;10265168;28;20080;-62
2023/01/16 08:07:43;;;;;;;9.13;1.98;;;;;;;3.89;60.34;97259.97;10264301;28;20487;-63
2023/01/16 08:12:45;;;;;;;6.47;1.60;;;;;;;3.94;60.04;97250.13;10266321;28;20392;-63
2023/01/16 08:17:47;;;;;;;7.97;1.67;;;;;;;3.92;60.05;97233.91;10265432;28;20046;-63
2023/01/16 08:22:50;;;;;;;6.95;1.75;;;;;;;3.99;59.80;97229.91;10271875;28;20137;-63
2023/01/16 08:27:51;;;;;;;8.02;2.08;;;;;;;3.81;61.27;97208.00;10280317;28;20367;-64
2023/01/16 08:33:00;;;;;;;8.85;2.03;;;;;;;3.69;62.40;97191.66;10273124;28;20049;-63
2023/01/16 08:38:02;;;;;;;5.93;1.70;;;;;;;3.54;63.40;97168.72;10270870;28;20334;-64
2023/01/16 08:53:46;;;;;;;5.13;1.63;;;;;;;3.47;64.92;97142.53;10264274;28;20051;-64
2023/01/16 08:58:48;;;;;;;7.55;1.60;;;;;;;3.38;65.36;97135.47;10269466;28;20420;-64
2023/01/16 09:03:49;;;;;;;6.90;1.73;;;;;;;3.55;65.25;97134.22;10277913;28;20538;-63
2023/01/16 09:08:51;;;;;;;2.70;1.30;;;;;;;3.66;65.09;97135.03;10273725;28;20042;-64
2023/01/16 09:13:53;;;;;;;3.60;1.38;;;;;;;3.62;65.07;97131.03;10264714;28;20051;-64
2023/01/16 09:18:54;;;;;;;6.05;1.70;;;;;;;3.68;64.68;97114.25;10271590;28;20078;-63
2023/01/16 09:23:56;;;;;;;6.75;1.40;;;;;;;3.73;64.73;97123.28;10276549;28;20539;-63
2023/01/16 09:28:58;;;;;;;4.50;1.40;;;;;;;3.62;64.76;97110.34;10263681;28;20042;-64
2023/01/16 09:33:59;;;;;;;5.20;1.40;;;;;;;3.67;64.81;97112.59;10266287;28;20533;-64
2023/01/16 09:39:01;;;;;;;4.28;1.50;;;;;;;3.65;64.70;97117.06;10258905;28;20627;-64
2023/01/16 09:44:07;;;;;;;5.10;1.63;;;;;;;3.74;64.85;97111.22;10263296;28;20050;-64
2023/01/16 09:49:18;;;;;;;4.97;1.67;;;;;;;3.72;64.88;97092.41;10266368;28;20039;-64
2023/01/16 09:59:54;;;;;;;3.78;1.52;;;;;;;3.54;65.19;97084.28;10277267;28;20050;-64
2023/01/16 10:04:56;;;;;;;6.78;1.92;;;;;;;3.56;65.50;97071.25;10274397;28;20050;-63
2023/01/16 10:10:14;;;;;;;2.92;1.42;;;;;;;3.61;65.58;97058.81;10270528;28;20515;-64
2023/01/16 10:15:37;;;;;;;3.55;1.55;;;;;;;3.52;66.03;97055.16;10268704;28;20412;-64
2023/01/16 10:20:55;;;;;;;4.10;1.42;;;;;;;3.59;66.19;97042.59;10271035;28;20482;-64
2023/01/16 10:26:11;;;;;;;5.43;1.60;;;;;;;3.62;65.96;97024.28;10306121;28;20057;-64
2023/01/16 10:31:49;;;;;;;3.80;1.52;;;;;;;3.82;65.07;97010.63;10276468;28;20500;-63
2023/01/16 10:36:59;;;;;;;4.75;1.80;;;;;;;3.98;65.39;97007.66;10267646;28;20055;-64
2023/01/16 10:52:54;;;;;;;3.05;1.30;;;;;;;4.14;65.18;96957.19;10265034;28;20054;-63
2023/01/16 10:58:01;;;;;;;2.33;1.30;;;;;;;4.17;64.66;96943.19;10275995;28;20451;-64
2023/01/16 11:03:30;;;;;;;3.63;1.42;;;;;;;4.39;64.95;96930.16;10416645;27;21001;-65
2023/01/16 11:08:33;;;;;;;1.58;1.10;;;;;;;4.56;64.15;96925.22;10414213;28;20061;-65
2023/01/16 11:18:55;;;;;;;4.03;1.40;;;;;;;4.97;63.81;96901.00;10416689;28;20045;-64
2023/01/16 11:24:13;;;;;;;3.10;1.30;;;;;;;5.47;62.79;96888.91;10418631;28;20611;-65
2023/01/16 11:29:17;;;;;;;2.83;1.25;;;;;;;5.67;62.25;96866.41;10414802;28;20696;-65
2023/01/16 11:34:20;;;;;;;3.65;1.35;;;;;;;5.57;62.48;96841.28;10417542;28;20071;-65
2023/01/16 11:39:27;;;;;;;4.85;2.00;;;;;;;5.57;62.64;96835.31;10414701;28;20041;-65
2023/01/16 11:49:57;;;;;;;3.20;1.10;;;;;;;5.17;62.73;96829.34;10414275;28;20408;-65
2023/01/16 11:55:04;;;;;;;2.95;1.23;;;;;;;5.27;62.96;96812.06;10408713;28;20051;-66
2023/01/16 12:00:25;;;;;;;4.72;1.67;;;;;;;5.37;62.75;96792.97;10411640;28;20056;-65
2023/01/16 12:05:58;;;;;;;3.72;1.63;;;;;;;5.64;62.18;96781.94;10408878;28;20072;-65
2023/01/16 12:11:08;;;;;;;3.83;1.40;;;;;;;5.81;61.83;96752.72;10403568;28;20789;-65
2023/01/16 12:16:27;;;;;;;3.45;1.30;;;;;;;5.94;61.17;96727.28;10385859;28;20274;-65
2023/01/16 12:21:44;;;;;;;1.92;1.30;;;;;;;5.78;61.12;96705.53;10381711;28;20053;-65
2023/01/16 12:27:08;;;;;;;9.73;3.90;;;;;;;5.62;61.32;96687.09;10388017;28;20054;-65
2023/01/16 12:32:42;;;;;;;4.97;1.70;;;;;;;5.87;60.65;96669.19;10386427;28;20817;-65
2023/01/16 12:37:50;;;;;;;4.13;1.95;;;;;;;5.71;61.22;96657.75;10384985;28;20544;-65
2023/01/16 12:43:21;;;;;;;3.03;1.90;;;;;;;5.72;60.60;96641.22;10383278;28;20319;-65
2023/01/16 12:48:53;;;;;;;3.83;1.70;;;;;;;5.92;60.68;96617.69;10380104;28;20433;-64
2023/01/16 12:54:26;;;;;;;4.25;1.70;;;;;;;6.44;60.41;96615.41;10384656;28;20504;-64
2023/01/16 12:59:38;;;;;;;3.40;1.60;;;;;;;6.04;60.24;96603.56;10381305;28;20061;-64
2023/01/16 13:04:45;;;;;;;5.05;1.77;;;;;;;6.02;60.99;96576.97;10386708;28;20057;-65
2023/01/16 13:15:40;;;;;;;4.13;1.70;;;;;;;5.99;60.96;96553.91;10380344;28;20049;-63
2023/01/16 13:20:45;;;;;;;2.72;1.52;;;;;;;5.76;61.55;96542.28;10385130;28;20033;-63
2023/01/16 13:25:56;;;;;;;3.95;1.52;;;;;;;5.61;61.79;96535.16;10379531;28;20054;-62
2023/01/16 13:31:03;;;;;;;7.07;1.80;;;;;;;5.55;62.00;96521.78;10383178;28;20057;-63
2023/01/16 13:36:33;;;;;;;4.70;1.80;;;;;;;5.45;62.72;96515.03;10385713;28;20064;-63
2023/01/16 13:41:43;;;;;;;5.03;2.00;;;;;;;5.60;62.61;96500.63;10381948;28;20642;-62
2023/01/16 13:46:47;;;;;;;3.88;1.70;;;;;;;5.22;62.96;96508.56;10383985;28;20468;-62
2023/01/16 13:51:51;;;;;;;4.13;1.75;;;;;;;5.25;63.24;96503.91;10381008;28;20049;-63
2023/01/16 13:57:07;;;;;;;2.75;1.60;;;;;;;4.99;64.45;96492.53;10379320;28;20528;-64
2023/01/16 14:02:39;;;;;;;4.43;1.70;;;;;;;4.74;65.19;96489.75;10374556;28;20421;-64
2023/01/16 14:13:15;;;;;;;3.47;1.70;;;;;;;4.78;65.63;96457.47;10380039;28;20043;-64
2023/01/16 14:18:20;;;;;;;4.18;1.60;;;;;;;4.73;65.46;96444.94;10376187;28;20045;-64
2023/01/16 14:28:56;;;;;;;4.80;1.75;;;;;;;4.65;65.44;96395.63;10380738;28;20049;-64
2023/01/16 14:33:57;;;;;;;3.20;1.60;;;;;;;4.46;65.73;96385.31;10382360;28;20052;-64
2023/01/16 14:38:59;;;;;;;2.75;1.40;;;;;;;4.55;65.55;96364.63;10381904;28;20045;-63
2023/01/16 14:55:44;;;;;;;3.90;1.40;;;;;;;4.54;66.61;96321.56;10377905;28;20386;-64
2023/01/16 15:00:50;;;;;;;2.33;1.40;;;;;;;4.63;66.72;96319.91;10378401;28;20397;-64
2023/01/16 15:05:56;;;;;;;2.53;1.30;;;;;;;4.84;66.35;96301.56;10383491;28;20049;-64
2023/01/16 15:11:30;;;;;;;2.30;1.50;;;;;;;4.79;66.83;96302.00;10376556;28;20064;-64
2023/01/16 15:21:57;;;;;;;3.27;1.40;;;;;;;4.94;66.28;96279.84;10379032;28;20076;-64
2023/01/16 15:27:13;;;;;;;2.83;1.40;;;;;;;4.94;66.35;96272.09;10380499;28;20041;-64
2023/01/16 15:32:21;;;;;;;3.83;1.58;;;;;;;4.77;66.70;96257.31;10378641;28;20200;-64
2023/01/16 15:37:27;;;;;;;7.82;1.70;;;;;;;4.66;67.13;96263.50;10380573;28;20072;-64
2023/01/16 15:47:58;;;;;;;14.83;8.33;;;;;;;4.47;68.15;96261.03;10385426;28;20063;-64
2023/01/16 15:53:01;;;;;;;9.45;4.78;;;;;;;4.63;67.54;96253.44;10387189;28;20312;-64
2023/01/16 15:58:07;;;;;;;4.28;2.30;;;;;;;4.56;67.83;96247.22;10388205;28;20048;-64
2023/01/16 16:03:15;;;;;;;3.08;1.67;;;;;;;4.58;67.65;96224.59;10381507;28;20456;-65
2023/01/16 16:08:21;;;;;;;8.95;3.75;;;;;;;4.59;67.41;96228.81;10380066;28;20047;-65
2023/01/16 16:13:24;;;;;;;3.33;1.60;;;;;;;4.51;67.39;96217.56;10385299;28;20053;-65
2023/01/16 16:18:25;;;;;;;4.20;2.22;;;;;;;4.42;67.61;96200.31;10383245;28;20050;-65
2023/01/16 16:23:27;;;;;;;2.55;1.38;;;;;;;4.40;67.70;96190.09;10386813;28;20057;-65
2023/01/16 16:28:35;;;;;;;3.10;1.50;;;;;;;4.32;67.61;96196.94;10385466;28;20049;-65
2023/01/16 16:33:37;;;;;;;1.67;1.13;;;;;;;4.36;67.65;96193.13;10383207;28;20046;-64
2023/01/16 16:38:39;;;;;;;2.83;1.60;;;;;;;4.38;67.47;96192.03;10382343;28;20410;-64
2023/01/16 16:43:46;;;;;;;4.65;2.88;;;;;;;4.31;67.84;96195.34;10386447;28;20060;-65
2023/01/16 16:48:51;;;;;;;4.72;2.90;;;;;;;4.28;68.05;96195.63;10386219;28;20724;-65
2023/01/16 16:54:03;;;;;;;4.03;2.60;;;;;;;4.31;67.61;96214.22;10383417;28;20049;-65
2023/01/16 16:59:07;;;;;;;4.97;2.83;;;;;;;4.29;67.55;96223.91;10379904;28;20046;-64
2023/01/16 17:04:16;;;;;;;1.00;0.82;;;;;;;4.30;67.53;96225.56;10379492;28;20264;-65
2023/01/16 17:09:18;;;;;;;3.10;1.80;;;;;;;4.18;67.67;96225.88;10375212;28;20060;-64
2023/01/16 17:14:19;;;;;;;2.67;1.10;;;;;;;4.33;67.34;96233.00;10385064;28;20055;-65
2023/01/16 17:19:29;;;;;;;1.58;0.95;;;;;;;4.18;66.89;96237.03;10382043;28;20049;-65
2023/01/16 17:24:31;;;;;;;2.00;1.40;;;;;;;4.13;67.22;96236.63;10385127;28;20057;-64
2023/01/16 17:29:34;;;;;;;1.25;1.00;;;;;;;4.13;67.09;96249.56;10382763;28;20228;-65
2023/01/16 17:34:35;;;;;;;1.73;1.17;;;;;;;4.07;67.05;96251.91;10385524;28;20049;-65
2023/01/16 17:39:37;;;;;;;1.20;1.00;;;;;;;4.10;66.94;96251.63;10382854;28;20074;-64
2023/01/16 18:00:41;;;;;;;1.70;1.23;;;;;;;4.05;67.23;96262.38;10380626;28;20064;-65
2023/01/16 18:05:42;;;;;;;3.00;1.80;;;;;;;4.13;67.01;96275.41;10384948;28;20049;-65
2023/01/16 18:10:44;;;;;;;1.92;1.33;;;;;;;4.17;66.94;96276.78;10380220;28;20068;-64
2023/01/16 18:26:32;;;;;;;3.42;2.03;;;;;;;4.10;66.67;96270.53;10382747;28;20049;-65
2023/01/16 18:31:33;;;;;;;2.13;1.45;;;;;;;4.10;66.91;96275.72;10378003;28;20053;-65
2023/01/16 18:36:35;;;;;;;5.22;3.08;;;;;;;4.22;66.63;96277.19;10379416;28;20053;-65
2023/01/16 19:02:58;;;;;;;2.15;1.33;;;;;;;4.34;66.39;96281.22;10373671;28;20410;-65
2023/01/16 19:08:02;;;;;;;2.38;1.27;;;;;;;4.38;66.14;96281.75;10383786;28;20452;-65
2023/01/16 19:13:07;;;;;;;5.03;2.30;;;;;;;4.33;66.21;96294.28;10379413;28;20045;-65
2023/01/16 19:18:09;;;;;;;3.25;1.83;;;;;;;4.28;65.78;96305.06;10373869;28;20068;-65
2023/01/16 19:23:11;;;;;;;4.57;2.08;;;;;;;4.24;66.01;96302.88;10377733;28;20045;-65
2023/01/16 19:28:13;;;;;;;6.75;3.10;;;;;;;4.29;65.80;96308.47;10384661;28;20041;-65
2023/01/16 19:33:15;;;;;;;12.45;6.03;;;;;;;4.24;65.67;96310.66;10381183;28;20519;-65
2023/01/16 19:38:17;;;;;;;3.85;2.35;;;;;;;4.37;65.22;96311.16;10378583;28;20052;-65
2023/01/16 19:48:40;;;;;;;3.88;1.98;;;;;;;4.19;64.74;96336.13;10380812;28;20099;-65
2023/01/16 19:53:43;;;;;;;2.50;1.40;;;;;;;4.35;64.46;96339.72;10383109;28;20057;-65
2023/01/16 19:58:45;;;;;;;2.58;1.33;;;;;;;4.29;64.56;96337.72;10374751;28;20076;-65
2023/01/16 20:03:46;;;;;;;5.32;1.60;;;;;;;4.37;64.44;96348.16;10381895;28;20243;-65
2023/01/16 20:08:48;;;;;;;2.83;1.40;;;;;;;4.42;64.44;96340.81;10386473;28;20073;-65
2023/01/16 20:13:52;;;;;;;1.10;1.00;;;;;;;4.34;64.54;96351.06;10386739;28;20456;-65
2023/01/16 20:18:54;;;;;;;1.35;1.00;;;;;;;4.27;64.64;96346.59;10388154;28;20049;-65
2023/01/16 20:23:59;;;;;;;2.35;1.08;;;;;;;4.28;64.80;96367.13;10365635;28;20406;-65
2023/01/16 20:29:02;;;;;;;1.98;1.10;;;;;;;4.23;64.74;96374.47;10383175;28;20417;-65
2023/01/16 20:34:03;;;;;;;1.17;0.82;;;;;;;4.07;65.40;96383.78;10384071;28;20128;-65
2023/01/16 20:39:06;;;;;;;2.08;1.10;;;;;;;3.96;66.10;96405.41;10386967;28;20320;-65
2023/01/16 20:49:37;;;;;;;1.70;1.15;;;;;;;3.78;66.91;96412.19;10384271;28;20410;-65
2023/01/16 20:54:38;;;;;;;2.75;1.30;;;;;;;3.53;68.09;96444.50;10388750;28;20549;-65
2023/01/16 20:59:40;;;;;;;3.53;1.40;;;;;;;3.49;68.40;96440.56;10384824;28;20398;-65
2023/01/16 21:04:42;;;;;;;2.58;1.50;;;;;;;3.45;68.34;96454.69;10388296;28;20049;-65
2023/01/16 21:09:43;;;;;;;1.20;0.98;;;;;;;3.46;68.18;96458.91;10384383;28;20042;-64
2023/01/16 21:14:47;;;;;;;3.00;1.90;;;;;;;3.48;68.28;96472.50;10370177;28;20048;-65
2023/01/16 21:25:10;;;;;;;0.75;0.70;;;;;;;3.53;67.62;96495.34;10385933;28;20053;-65
2023/01/16 21:30:14;;;;;;;0.88;0.80;;;;;;;3.57;67.70;96512.22;10384927;28;20056;-65
2023/01/16 21:35:17;;;;;;;0.75;0.70;;;;;;;3.46;68.17;96517.47;10370503;28;20045;-65
2023/01/16 21:40:20;;;;;;;0.70;0.70;;;;;;;3.45;68.20;96533.94;10377350;28;20059;-65
2023/01/16 21:50:44;;;;;;;1.55;1.00;;;;;;;3.50;68.14;96545.50;10377518;28;20144;-65
2023/01/16 21:55:51;;;;;;;1.13;0.90;;;;;;;3.51;67.80;96541.19;10377559;28;20052;-65
2023/01/16 22:00:53;;;;;;;1.08;0.80;;;;;;;3.55;67.66;96573.53;10379948;28;20045;-65
2023/01/16 22:05:56;;;;;;;0.90;0.70;;;;;;;3.47;67.66;96581.13;10377689;28;20077;-65
2023/01/16 22:21:45;;;;;;;0.88;0.75;;;;;;;3.44;67.06;96620.13;10379220;28;20056;-65
2023/01/16 22:26:46;;;;;;;1.55;1.00;;;;;;;3.52;67.17;96635.78;10376105;28;20410;-65
2023/01/16 22:31:49;;;;;;;1.90;1.20;;;;;;;3.49;66.67;96636.91;10384447;28;20060;-64
2023/01/16 22:36:51;;;;;;;2.30;1.40;;;;;;;3.57;66.30;96629.31;10378293;28;20045;-64
2023/01/16 22:41:52;;;;;;;1.67;1.20;;;;;;;3.53;65.95;96645.19;10376253;28;20045;-64
2023/01/16 22:46:54;;;;;;;3.63;1.50;;;;;;;3.43;65.80;96665.00;10373377;28;20045;-64
2023/01/16 22:51:56;;;;;;;3.50;1.67;;;;;;;3.56;65.62;96674.16;10376861;28;20052;-64
2023/01/16 22:56:57;;;;;;;3.25;1.70;;;;;;;3.51;65.07;96680.66;10376795;28;20049;-65
2023/01/16 23:01:59;;;;;;;4.72;1.80;;;;;;;3.66;65.29;96689.75;10375593;28;20056;-65
2023/01/16 23:07:02;;;;;;;3.88;1.80;;;;;;;3.71;64.40;96703.91;10378279;28;20046;-64
2023/01/16 23:12:03;;;;;;;4.07;1.90;;;;;;;3.68;64.48;96704.16;10378254;28;20053;-64
2023/01/16 23:17:05;;;;;;;5.43;2.13;;;;;;;3.57;64.29;96718.91;10376684;28;20077;-64
2023/01/16 23:22:07;;;;;;;5.13;1.90;;;;;;;3.61;64.05;96717.72;10377208;28;20050;-64
2023/01/16 23:27:08;;;;;;;6.20;2.10;;;;;;;3.67;63.68;96722.38;10372965;28;20056;-64
2023/01/16 23:32:10;;;;;;;6.65;2.47;;;;;;;3.64;63.40;96733.00;10379645;28;20057;-65
2023/01/16 23:37:12;;;;;;;6.20;2.13;;;;;;;3.75;63.37;96751.81;10378947;28;20536;-65
2023/01/16 23:47:33;;;;;;;5.75;2.10;;;;;;;3.56;62.61;96763.78;10378853;28;20041;-65
2023/01/16 23:52:38;;;;;;;4.82;2.05;;;;;;;3.65;62.52;96756.09;10379562;28;20069;-64
2023/01/16 23:57:40;;;;;;;6.60;2.00;;;;;;;3.57;62.44;96762.84;10376346;28;20433;-64
